Time;durP1;ratioP1;P1;durP2;ratioP2;P2;SDS_P1;SDS_P2;PMS_P1;PMS_P2;Temp;Humidity;BMP_temperature;BMP_pressure;BME280_temperature;BME280_humidity;BME280_pressure;Samples;Min_cycle;Max_cycle;Signal;HPM_P1;HPM_P2
2021/06/09 00:00:49;;;;;;;7.27;6.87;;;;;;;19.17;67.57;101090.72;5102150;28;20207;-74
2021/06/09 00:03:15;;;;;;;7.30;6.83;;;;;;;19.16;67.13;101089.00;5102367;28;20223;-74
2021/06/09 00:05:42;;;;;;;7.90;7.40;;;;;;;19.11;67.50;101078.63;5102501;28;20210;-73
2021/06/09 00:08:08;;;;;;;8.10;7.50;;;;;;;19.11;67.35;101075.97;5102841;28;20209;-74
2021/06/09 00:10:34;;;;;;;7.17;6.77;;;;;;;19.11;67.77;101075.97;5102635;28;20217;-74
2021/06/09 00:13:00;;;;;;;7.90;7.40;;;;;;;19.10;67.59;101082.19;5104226;28;20205;-75
2021/06/09 00:15:28;;;;;;;7.00;6.60;;;;;;;19.07;66.83;101077.03;5106762;28;20734;-74
2021/06/09 00:17:54;;;;;;;6.90;6.50;;;;;;;19.04;66.64;101074.53;5106386;28;20217;-74
2021/06/09 00:20:22;;;;;;;6.87;6.33;;;;;;;19.03;66.43;101072.81;5106491;28;20210;-73
2021/06/09 00:22:50;;;;;;;5.93;5.53;;;;;;;19.03;65.67;101078.09;5105855;27;20674;-74
2021/06/09 00:25:16;;;;;;;6.57;6.07;;;;;;;18.98;65.29;101080.94;5106201;28;20225;-74
2021/06/09 00:27:43;;;;;;;6.23;5.83;;;;;;;18.94;65.64;101079.34;5105874;28;20262;-74
2021/06/09 00:30:11;;;;;;;6.00;5.60;;;;;;;18.90;65.21;101075.13;5106106;28;20212;-74
2021/06/09 00:32:37;;;;;;;5.67;5.10;;;;;;;18.85;64.61;101077.97;5106085;28;20594;-74
2021/06/09 00:35:04;;;;;;;5.87;5.37;;;;;;;18.87;64.29;101082.31;5106225;28;20743;-74
2021/06/09 00:37:30;;;;;;;5.00;4.70;;;;;;;18.86;63.96;101078.84;5106014;28;20202;-74
2021/06/09 00:39:58;;;;;;;4.50;4.10;;;;;;;18.84;63.10;101084.19;5105853;28;20260;-74
2021/06/09 00:42:23;;;;;;;4.13;3.73;;;;;;;18.83;63.08;101087.78;5105270;28;20206;-74
2021/06/09 00:44:50;;;;;;;3.87;3.57;;;;;;;18.84;62.26;101080.69;5105478;28;20278;-73
2021/06/09 00:47:19;;;;;;;3.90;3.60;;;;;;;18.84;62.39;101088.63;5106058;28;20202;-74
2021/06/09 00:49:45;;;;;;;4.10;3.80;;;;;;;18.82;62.43;101080.75;5106170;28;20217;-73
2021/06/09 00:52:11;;;;;;;3.93;3.70;;;;;;;18.80;62.89;101079.94;5105480;28;20206;-74
2021/06/09 00:54:37;;;;;;;4.50;4.20;;;;;;;18.81;63.04;101081.69;5105533;27;20241;-73
2021/06/09 00:57:05;;;;;;;4.13;3.87;;;;;;;18.72;63.46;101083.81;5106254;27;20692;-74
2021/06/09 00:59:32;;;;;;;6.50;3.93;;;;;;;18.75;63.64;101079.28;5106342;27;20636;-74
2021/06/09 01:01:58;;;;;;;4.23;3.93;;;;;;;18.77;63.10;101079.19;5106556;27;20211;-72
2021/06/09 01:04:23;;;;;;;4.10;3.90;;;;;;;18.77;63.39;101080.06;5107490;27;20228;-74
2021/06/09 01:06:49;;;;;;;3.80;3.60;;;;;;;18.73;63.44;101069.66;5107477;27;20213;-74
2021/06/09 01:09:15;;;;;;;3.43;3.23;;;;;;;18.69;62.97;101068.97;5107118;27;20249;-74
2021/06/09 01:11:41;;;;;;;3.77;3.50;;;;;;;18.63;63.33;101070.06;5107107;27;20215;-74
2021/06/09 01:14:08;;;;;;;5.07;3.57;;;;;;;18.63;63.02;101064.78;5105736;27;20225;-73
2021/06/09 01:16:34;;;;;;;3.80;3.40;;;;;;;18.58;62.85;101065.91;5106595;27;20203;-73
2021/06/09 01:19:00;;;;;;;3.83;3.63;;;;;;;18.56;62.87;101065.97;5105856;27;20213;-75
2021/06/09 01:21:29;;;;;;;4.13;3.70;;;;;;;18.54;63.14;101059.88;5105783;27;21493;-74
2021/06/09 01:23:55;;;;;;;4.40;4.10;;;;;;;18.51;63.46;101062.63;5104152;27;20325;-73
2021/06/09 01:26:23;;;;;;;3.83;3.57;;;;;;;18.48;63.18;101054.84;5106077;27;20203;-75
2021/06/09 01:28:49;;;;;;;3.83;3.63;;;;;;;18.44;63.49;101055.91;5106081;27;20293;-75
2021/06/09 01:31:15;;;;;;;3.87;3.67;;;;;;;18.41;63.60;101056.03;5105943;27;20215;-73
2021/06/09 01:33:41;;;;;;;4.00;3.70;;;;;;;18.36;63.91;101058.88;5105320;27;20231;-75
2021/06/09 01:36:08;;;;;;;3.80;3.60;;;;;;;18.34;64.06;101063.34;5105809;27;20207;-75
2021/06/09 01:38:35;;;;;;;4.10;3.80;;;;;;;18.34;64.25;101060.72;5107335;27;20221;-75
2021/06/09 01:41:01;;;;;;;3.80;3.60;;;;;;;18.33;64.70;101064.25;5107616;27;20265;-75
2021/06/09 01:43:27;;;;;;;4.20;3.90;;;;;;;18.30;65.11;101064.41;5106025;28;20317;-74
2021/06/09 01:45:53;;;;;;;5.17;4.63;;;;;;;18.28;65.09;101066.25;5105855;27;20617;-75
2021/06/09 01:48:19;;;;;;;5.60;4.40;;;;;;;18.30;65.08;101067.06;5105649;27;20501;-74
2021/06/09 01:50:45;;;;;;;4.10;3.80;;;;;;;18.23;66.38;101063.78;5105681;27;20843;-75
2021/06/09 01:53:11;;;;;;;4.57;4.27;;;;;;;18.26;66.07;101066.31;5105802;27;20234;-74
2021/06/09 01:55:39;;;;;;;4.90;4.50;;;;;;;18.22;68.18;101069.16;5105270;27;20595;-75
2021/06/09 01:58:07;;;;;;;4.87;4.47;;;;;;;18.22;69.54;101061.22;5105192;27;20216;-75
2021/06/09 02:00:37;;;;;;;4.53;3.47;;;;;;;18.31;70.19;101059.97;5105460;28;20262;-75
2021/06/09 02:03:03;;;;;;;3.80;3.50;;;;;;;18.24;69.42;101057.59;5104707;27;20212;-75
2021/06/09 02:05:31;;;;;;;4.23;3.87;;;;;;;18.12;70.54;101059.88;5105420;27;20227;-75
2021/06/09 02:07:59;;;;;;;4.13;3.83;;;;;;;18.13;71.32;101058.94;5104593;27;20543;-75
2021/06/09 02:10:26;;;;;;;4.90;4.60;;;;;;;18.13;69.41;101053.66;5104896;27;20200;-75
2021/06/09 02:12:55;;;;;;;5.40;4.90;;;;;;;18.19;68.06;101069.25;5104816;27;20206;-74
2021/06/09 02:15:23;;;;;;;5.10;4.80;;;;;;;18.19;67.88;101062.19;5104732;27;20616;-73
2021/06/09 02:17:56;;;;;;;5.47;5.07;;;;;;;18.19;68.39;101061.34;5104596;27;20215;-74
2021/06/09 02:20:24;;;;;;;6.03;5.43;;;;;;;18.15;68.18;101062.38;5103932;27;20204;-75
2021/06/09 02:22:51;;;;;;;6.13;5.67;;;;;;;18.12;68.31;101063.38;5100849;27;20209;-75
2021/06/09 02:25:17;;;;;;;5.33;4.93;;;;;;;18.09;68.28;101060.84;5103466;28;20238;-75
2021/06/09 02:27:43;;;;;;;5.47;5.03;;;;;;;18.06;68.61;101055.69;5102087;27;20201;-74
2021/06/09 02:30:12;;;;;;;4.60;4.30;;;;;;;18.03;68.74;101058.44;5102872;28;20208;-74
2021/06/09 02:32:40;;;;;;;5.40;5.10;;;;;;;18.00;68.87;101056.81;5102899;28;20204;-75
2021/06/09 02:35:12;;;;;;;4.83;4.43;;;;;;;17.99;69.25;101062.13;5103435;28;20233;-75
2021/06/09 02:37:38;;;;;;;5.70;5.20;;;;;;;17.95;69.23;101052.63;5101419;27;20210;-74
2021/06/09 02:40:08;;;;;;;6.00;5.40;;;;;;;17.95;69.20;101057.91;5100223;27;20288;-73
2021/06/09 02:42:34;;;;;;;5.90;5.30;;;;;;;17.93;69.39;101054.47;5101264;27;20200;-74
2021/06/09 02:45:00;;;;;;;5.93;5.53;;;;;;;17.96;69.02;101055.22;5102695;28;20223;-74
2021/06/09 02:47:28;;;;;;;5.40;5.00;;;;;;;17.94;68.83;101057.06;5102899;28;20304;-75
2021/06/09 02:49:58;;;;;;;5.20;4.70;;;;;;;17.89;69.07;101061.63;5103171;28;20196;-75
2021/06/09 02:52:29;;;;;;;5.53;5.13;;;;;;;17.83;68.96;101060.09;5102824;27;20220;-75
2021/06/09 02:55:02;;;;;;;5.10;4.70;;;;;;;17.84;69.40;101067.13;5102301;27;20285;-73
2021/06/09 02:57:35;;;;;;;5.13;4.83;;;;;;;17.81;69.60;101061.91;5101711;27;20207;-75
2021/06/09 03:00:05;;;;;;;5.13;4.83;;;;;;;17.76;70.70;101065.63;5102723;27;20213;-74
2021/06/09 03:02:43;;;;;;;5.20;4.90;;;;;;;17.75;71.94;101066.56;5100384;27;21052;-75
2021/06/09 03:05:16;;;;;;;5.00;4.70;;;;;;;17.67;72.78;101064.22;5102371;27;20232;-74
2021/06/09 03:07:58;;;;;;;6.13;5.37;;;;;;;17.53;73.02;101059.47;5100413;27;20344;-75
2021/06/09 03:10:37;;;;;;;5.03;4.63;;;;;;;17.57;73.27;101063.72;5103614;27;20204;-75
2021/06/09 03:13:08;;;;;;;4.47;4.27;;;;;;;17.60;73.27;101060.09;5103503;27;20205;-74
2021/06/09 03:15:40;;;;;;;5.00;4.60;;;;;;;17.60;74.08;101054.81;5103733;28;20725;-74
2021/06/09 03:18:15;;;;;;;5.47;5.07;;;;;;;17.47;74.23;101052.66;5103935;27;20302;-75
2021/06/09 03:20:52;;;;;;;5.73;5.20;;;;;;;17.39;73.42;101062.63;5103500;28;20989;-74
2021/06/09 03:23:33;;;;;;;5.53;5.03;;;;;;;17.31;74.03;101061.22;5102724;28;20257;-74
2021/06/09 03:26:08;;;;;;;5.53;4.60;;;;;;;17.32;72.17;101060.28;5102739;28;20204;-74
2021/06/09 03:28:39;;;;;;;4.60;4.20;;;;;;;17.30;72.59;101064.75;5102357;28;20203;-74
2021/06/09 03:31:10;;;;;;;4.40;4.00;;;;;;;17.29;72.90;101063.03;5102983;28;20755;-73
2021/06/09 03:33:42;;;;;;;4.03;3.73;;;;;;;17.40;72.45;101053.81;5102397;28;20230;-75
2021/06/09 03:36:11;;;;;;;4.90;4.50;;;;;;;17.31;73.20;101062.06;5103036;28;20214;-75
2021/06/09 03:38:44;;;;;;;5.77;4.40;;;;;;;17.34;72.76;101059.28;5102611;28;20204;-74
2021/06/09 03:41:13;;;;;;;4.60;4.27;;;;;;;17.40;72.84;101052.94;5103016;28;20207;-75
2021/06/09 03:43:41;;;;;;;5.10;4.60;;;;;;;17.33;73.01;101054.94;5102458;28;20233;-75
2021/06/09 03:46:07;;;;;;;5.87;4.63;;;;;;;17.36;73.10;101046.94;5102778;28;20208;-74
2021/06/09 03:48:39;;;;;;;5.07;4.67;;;;;;;17.34;72.62;101051.38;5105599;28;20208;-74
2021/06/09 03:51:06;;;;;;;5.00;4.60;;;;;;;17.37;72.33;101039.88;5107143;28;20207;-75
2021/06/09 03:53:33;;;;;;;5.13;4.63;;;;;;;17.37;71.92;101031.94;5106468;28;20229;-73
2021/06/09 03:56:02;;;;;;;5.23;4.93;;;;;;;17.39;71.52;101040.66;5106945;28;20204;-75
2021/06/09 03:58:28;;;;;;;5.27;4.77;;;;;;;17.40;70.96;101042.38;5107174;28;20219;-75
2021/06/09 04:00:55;;;;;;;4.00;3.70;;;;;;;17.34;70.70;101046.09;5106712;28;20204;-74
2021/06/09 04:03:23;;;;;;;4.90;4.50;;;;;;;17.36;70.71;101040.78;5106247;28;20202;-74
2021/06/09 04:05:53;;;;;;;4.90;4.50;;;;;;;17.39;70.67;101040.66;5106895;28;20209;-75
2021/06/09 04:08:20;;;;;;;4.83;4.33;;;;;;;17.39;70.53;101036.25;5106136;28;20208;-75
2021/06/09 04:10:47;;;;;;;5.10;4.70;;;;;;;17.39;70.54;101030.97;5106784;28;20241;-75
2021/06/09 04:13:14;;;;;;;5.17;4.67;;;;;;;17.37;70.21;101037.22;5106191;28;20216;-74
2021/06/09 04:15:41;;;;;;;5.17;4.77;;;;;;;17.36;70.62;101036.38;5106298;28;20565;-74
2021/06/09 04:18:08;;;;;;;5.13;4.77;;;;;;;17.44;70.08;101038.69;5106545;28;20566;-75
2021/06/09 04:20:35;;;;;;;5.17;4.77;;;;;;;17.47;69.86;101042.09;5106414;28;20268;-74
2021/06/09 04:23:04;;;;;;;7.00;4.90;;;;;;;17.47;69.49;101047.38;5105669;28;20683;-74
2021/06/09 04:25:30;;;;;;;5.60;5.20;;;;;;;17.55;69.08;101046.22;5106362;28;20259;-73
2021/06/09 04:27:57;;;;;;;5.20;4.80;;;;;;;17.61;69.01;101045.97;5106235;28;20277;-75
2021/06/09 04:30:23;;;;;;;5.17;4.60;;;;;;;17.61;69.13;101041.56;5106154;28;20209;-74
2021/06/09 04:32:54;;;;;;;4.80;4.40;;;;;;;17.63;69.24;101049.44;5105914;28;20679;-74
2021/06/09 04:35:21;;;;;;;5.37;4.93;;;;;;;17.61;69.63;101038.06;5105969;28;20221;-74
2021/06/09 04:37:47;;;;;;;5.47;4.90;;;;;;;17.64;69.63;101043.22;5106266;28;20680;-74
2021/06/09 04:40:20;;;;;;;5.00;4.70;;;;;;;17.63;69.76;101049.44;5106350;28;20266;-75
2021/06/09 04:42:48;;;;;;;5.63;5.10;;;;;;;17.64;69.88;101045.84;5105536;28;20210;-74
2021/06/09 04:45:15;;;;;;;5.27;4.37;;;;;;;17.68;69.38;101050.13;5105931;28;20240;-75
2021/06/09 04:47:41;;;;;;;5.43;5.07;;;;;;;17.73;69.33;101047.28;5105564;27;20249;-75
2021/06/09 04:50:08;;;;;;;4.70;4.40;;;;;;;17.78;69.26;101040.91;5105576;28;20218;-73
2021/06/09 04:52:34;;;;;;;5.40;4.97;;;;;;;17.78;69.71;101047.97;5106044;28;20197;-74
2021/06/09 04:55:00;;;;;;;5.70;5.40;;;;;;;17.78;69.83;101042.66;5105891;28;20226;-74
2021/06/09 04:57:28;;;;;;;5.60;5.10;;;;;;;17.83;69.92;101040.72;5105585;28;20884;-74
2021/06/09 04:59:53;;;;;;;5.20;4.87;;;;;;;17.85;69.50;101036.28;5104689;28;20258;-75
2021/06/09 05:02:20;;;;;;;6.00;5.50;;;;;;;17.86;69.34;101038.00;5105164;28;20209;-75
2021/06/09 05:04:46;;;;;;;5.70;5.10;;;;;;;17.89;69.11;101032.59;5105079;28;20236;-74
2021/06/09 05:07:12;;;;;;;5.60;5.20;;;;;;;17.90;69.77;101031.69;5105951;28;20245;-74
2021/06/09 05:09:38;;;;;;;5.00;4.53;;;;;;;17.96;69.68;101035.88;5105536;28;20301;-75
2021/06/09 05:12:11;;;;;;;5.00;4.70;;;;;;;18.03;69.19;101029.38;5105219;28;20221;-74
2021/06/09 05:14:44;;;;;;;4.27;4.07;;;;;;;18.16;68.46;101027.13;5105068;28;20618;-74
2021/06/09 05:17:10;;;;;;;4.47;4.17;;;;;;;18.28;67.80;101023.13;5105238;28;20221;-75
2021/06/09 05:19:40;;;;;;;4.93;4.57;;;;;;;18.43;67.35;101025.09;5105487;28;20209;-74
2021/06/09 05:22:16;;;;;;;5.83;5.40;;;;;;;18.55;68.06;101029.00;5105141;28;20217;-75
2021/06/09 05:24:44;;;;;;;5.70;5.20;;;;;;;18.64;67.63;101032.13;5104994;28;20607;-74
2021/06/09 05:27:13;;;;;;;5.77;5.37;;;;;;;18.71;68.08;101030.09;5105135;28;20259;-74
2021/06/09 05:29:42;;;;;;;4.97;4.67;;;;;;;18.75;68.22;101026.38;5105295;28;20212;-75
2021/06/09 05:32:09;;;;;;;6.27;5.67;;;;;;;18.78;67.88;101035.94;5105051;28;20210;-75
2021/06/09 05:34:37;;;;;;;4.97;4.67;;;;;;;18.80;67.23;101036.78;5104622;28;20393;-75
2021/06/09 05:37:04;;;;;;;5.40;5.00;;;;;;;18.84;67.36;101038.34;5105049;28;20213;-75
2021/06/09 05:39:30;;;;;;;5.80;5.37;;;;;;;18.84;68.00;101039.22;5104964;28;20844;-74
2021/06/09 05:41:56;;;;;;;5.00;4.60;;;;;;;18.88;68.75;101044.38;5104385;28;20207;-75
2021/06/09 05:44:23;;;;;;;5.37;4.97;;;;;;;18.92;68.16;101036.22;5104798;28;20309;-74
2021/06/09 05:46:51;;;;;;;5.17;4.80;;;;;;;18.95;67.73;101038.75;5104865;28;20599;-74
2021/06/09 05:49:21;;;;;;;5.70;5.30;;;;;;;18.98;67.48;101035.09;5104848;28;20225;-75
2021/06/09 05:51:49;;;;;;;5.47;5.10;;;;;;;19.03;66.97;101031.34;5104899;28;20201;-75
2021/06/09 05:54:15;;;;;;;4.70;4.30;;;;;;;19.09;67.25;101040.78;5104491;28;20320;-74
2021/06/09 05:56:41;;;;;;;5.30;4.80;;;;;;;19.10;66.49;101039.84;5104629;28;20221;-74
2021/06/09 05:59:07;;;;;;;5.10;4.70;;;;;;;19.13;66.29;101037.06;5104586;28;20772;-74
2021/06/09 06:01:33;;;;;;;4.63;4.33;;;;;;;19.12;66.92;101034.50;5104645;28;20259;-75
2021/06/09 06:04:02;;;;;;;4.30;4.10;;;;;;;19.13;66.48;101041.50;5104105;28;20269;-74
2021/06/09 06:06:28;;;;;;;4.37;4.13;;;;;;;19.14;66.39;101038.78;5104443;28;20299;-74
2021/06/09 06:08:54;;;;;;;4.97;4.33;;;;;;;19.18;66.38;101039.50;5104413;28;20201;-74
2021/06/09 06:11:20;;;;;;;5.60;5.10;;;;;;;19.22;66.61;101047.22;5103978;28;20213;-75
2021/06/09 06:13:47;;;;;;;4.77;4.43;;;;;;;19.31;69.71;101047.75;5103995;28;20223;-75
2021/06/09 06:16:14;;;;;;;5.07;4.70;;;;;;;19.37;70.91;101047.47;5105126;28;20214;-75
2021/06/09 06:18:41;;;;;;;5.53;4.57;;;;;;;19.43;67.98;101042.75;5104305;27;20709;-76
2021/06/09 06:21:10;;;;;;;4.53;4.30;;;;;;;19.51;68.29;101047.69;5104764;28;20217;-74
2021/06/09 06:23:38;;;;;;;4.97;4.67;;;;;;;19.58;66.81;101042.94;5104217;28;20226;-76
2021/06/09 06:26:05;;;;;;;5.60;5.20;;;;;;;19.63;66.60;101048.91;5104156;28;20755;-74
2021/06/09 06:28:32;;;;;;;5.10;4.60;;;;;;;19.68;66.55;101049.53;5104021;28;20198;-74
2021/06/09 06:30:58;;;;;;;5.43;4.97;;;;;;;19.77;65.37;101049.13;5103925;28;20215;-74
2021/06/09 06:33:26;;;;;;;5.10;4.80;;;;;;;19.86;65.64;101049.63;5103835;28;20232;-74
2021/06/09 06:35:53;;;;;;;5.13;4.70;;;;;;;19.94;65.33;101043.03;5104098;28;20222;-74
2021/06/09 06:38:20;;;;;;;5.13;4.73;;;;;;;19.99;64.37;101035.72;5103439;28;20214;-74
2021/06/09 06:40:47;;;;;;;4.60;4.30;;;;;;;20.04;63.94;101035.50;5104143;28;20210;-74
2021/06/09 06:43:13;;;;;;;5.60;5.20;;;;;;;20.05;63.47;101031.91;5103746;28;20214;-75
2021/06/09 06:45:39;;;;;;;4.87;4.57;;;;;;;20.06;63.82;101038.06;5103907;28;20312;-74
2021/06/09 06:48:06;;;;;;;5.30;4.90;;;;;;;20.08;63.88;101031.78;5105271;27;20233;-73
2021/06/09 06:50:33;;;;;;;4.77;4.43;;;;;;;20.10;63.61;101035.19;5106108;28;20207;-73
2021/06/09 06:53:04;;;;;;;4.97;4.67;;;;;;;20.16;63.99;101034.03;5104627;27;20203;-74
2021/06/09 06:55:31;;;;;;;5.30;4.90;;;;;;;20.18;63.91;101029.53;5109934;27;20785;-75
2021/06/09 06:57:58;;;;;;;5.20;4.90;;;;;;;20.24;64.14;101034.53;5107269;27;20645;-75
2021/06/09 07:00:24;;;;;;;5.30;4.90;;;;;;;20.27;63.71;101023.75;5110255;27;20707;-74
2021/06/09 07:02:53;;;;;;;5.37;5.07;;;;;;;20.30;63.60;101038.66;5105537;27;20201;-73
2021/06/09 07:05:20;;;;;;;5.43;5.13;;;;;;;20.34;62.98;101030.47;5104263;27;20609;-73
2021/06/09 07:07:47;;;;;;;5.27;4.80;;;;;;;20.35;63.31;101032.16;5104210;27;20199;-74
2021/06/09 07:10:16;;;;;;;4.80;4.50;;;;;;;20.39;63.72;101035.53;5103280;28;20251;-75
2021/06/09 07:12:44;;;;;;;5.20;4.50;;;;;;;20.41;63.61;101033.66;5103182;28;20288;-75
2021/06/09 07:15:15;;;;;;;5.00;4.70;;;;;;;20.42;63.44;101035.38;5104082;27;20226;-76
2021/06/09 07:17:42;;;;;;;5.63;5.07;;;;;;;20.41;63.92;101033.66;5103827;27;20220;-74
2021/06/09 07:20:11;;;;;;;5.43;5.03;;;;;;;20.44;63.41;101039.66;5103662;27;20206;-75
2021/06/09 07:22:37;;;;;;;4.93;4.60;;;;;;;20.42;63.47;101036.25;5102801;28;20229;-74
2021/06/09 07:25:04;;;;;;;5.23;4.83;;;;;;;20.44;63.24;101033.50;5103568;27;20624;-74
2021/06/09 07:27:33;;;;;;;5.20;4.90;;;;;;;20.43;63.04;101045.94;5103879;27;20630;-75
2021/06/09 07:30:01;;;;;;;5.23;4.83;;;;;;;20.43;63.54;101040.63;5103912;28;20286;-74
2021/06/09 07:32:28;;;;;;;4.73;4.43;;;;;;;20.47;62.49;101049.25;5103181;28;20213;-75
2021/06/09 07:34:54;;;;;;;5.23;4.93;;;;;;;20.48;63.55;101052.78;5103060;28;20238;-75
2021/06/09 07:37:23;;;;;;;5.97;5.63;;;;;;;20.46;64.41;101050.22;5102663;28;20252;-76
2021/06/09 07:39:53;;;;;;;5.20;4.90;;;;;;;20.47;63.53;101057.22;5102645;28;20355;-75
2021/06/09 07:42:20;;;;;;;5.43;5.03;;;;;;;20.49;63.91;101057.13;5103853;28;20293;-74
2021/06/09 07:44:50;;;;;;;4.80;4.50;;;;;;;20.48;63.53;101058.94;5103992;28;20315;-74
2021/06/09 07:47:18;;;;;;;4.77;4.37;;;;;;;20.51;63.15;101053.47;5103326;28;20626;-74
2021/06/09 07:49:47;;;;;;;5.10;4.80;;;;;;;20.51;63.52;101056.13;5104325;28;20200;-74
2021/06/09 07:52:15;;;;;;;4.70;4.30;;;;;;;20.54;64.31;101055.13;5103502;28;20219;-75
2021/06/09 07:54:42;;;;;;;4.60;4.40;;;;;;;20.59;63.39;101055.75;5103920;28;20272;-75
2021/06/09 07:57:10;;;;;;;4.57;4.20;;;;;;;20.61;62.78;101052.13;5103554;28;20210;-73
2021/06/09 07:59:38;;;;;;;4.70;4.40;;;;;;;20.67;62.76;101058.88;5103137;28;20213;-74
2021/06/09 08:02:04;;;;;;;5.43;5.00;;;;;;;20.72;63.21;101053.34;5103631;28;20251;-74
2021/06/09 08:04:32;;;;;;;5.27;4.77;;;;;;;20.77;63.45;101049.53;5103862;28;20232;-74
2021/06/09 08:06:58;;;;;;;4.70;4.40;;;;;;;20.87;62.74;101049.91;5103657;28;20252;-73
2021/06/09 08:09:25;;;;;;;5.57;5.07;;;;;;;20.92;62.98;101047.84;5104132;28;20210;-72
2021/06/09 08:11:52;;;;;;;4.50;4.30;;;;;;;20.95;63.24;101054.78;5103565;28;20203;-72
2021/06/09 08:14:19;;;;;;;5.80;5.33;;;;;;;21.03;62.67;101053.47;5102969;28;21008;-76
2021/06/09 08:16:45;;;;;;;5.93;5.43;;;;;;;21.08;62.72;101047.91;5103664;28;20214;-72
2021/06/09 08:19:11;;;;;;;6.33;5.90;;;;;;;21.10;62.36;101050.50;5103293;28;20684;-75
2021/06/09 08:21:39;;;;;;;5.70;5.30;;;;;;;21.14;63.29;101046.72;5103233;28;20700;-73
2021/06/09 08:24:06;;;;;;;5.83;5.37;;;;;;;21.16;64.11;101050.16;5101311;28;20234;-73
2021/06/09 08:26:33;;;;;;;6.80;6.10;;;;;;;21.21;63.52;101050.78;5103034;28;20203;-73
2021/06/09 08:28:59;;;;;;;6.17;5.77;;;;;;;21.25;63.66;101046.13;5103121;28;20342;-73
2021/06/09 08:31:27;;;;;;;7.33;6.70;;;;;;;21.31;61.99;101044.03;5102595;28;20726;-71
2021/06/09 08:33:56;;;;;;;7.77;7.27;;;;;;;21.35;61.44;101042.06;5102925;28;20899;-71
2021/06/09 08:36:23;;;;;;;7.67;7.07;;;;;;;21.35;61.54;101047.38;5105531;27;20691;-72
2021/06/09 08:38:55;;;;;;;7.60;6.90;;;;;;;21.43;62.47;101039.88;5105319;28;20207;-71
2021/06/09 08:41:23;;;;;;;6.83;6.43;;;;;;;21.48;63.40;101035.16;5105152;28;20238;-71
2021/06/09 08:43:49;;;;;;;8.20;7.50;;;;;;;21.62;62.38;101037.03;5104908;28;20233;-72
2021/06/09 08:46:17;;;;;;;8.67;8.17;;;;;;;21.70;62.21;101040.13;5105566;28;20219;-72
2021/06/09 08:48:45;;;;;;;8.23;7.53;;;;;;;21.78;62.68;101032.59;5105258;28;20688;-71
2021/06/09 08:51:13;;;;;;;8.20;7.60;;;;;;;21.87;61.31;101041.84;5105603;28;20211;-72
2021/06/09 08:53:43;;;;;;;8.50;8.00;;;;;;;21.93;61.59;101038.00;5105533;28;20230;-75
2021/06/09 08:56:11;;;;;;;9.83;8.73;;;;;;;21.96;64.56;101036.03;5105381;28;20271;-73
2021/06/09 08:58:37;;;;;;;8.67;8.00;;;;;;;21.90;62.72;101035.50;5103675;28;20202;-75
2021/06/09 09:01:06;;;;;;;8.70;8.10;;;;;;;21.98;62.48;101031.47;5104115;28;20212;-74
2021/06/09 09:03:33;;;;;;;8.30;7.80;;;;;;;22.10;62.25;101029.03;5104381;28;20231;-74
2021/06/09 09:05:58;;;;;;;8.97;8.30;;;;;;;22.14;60.95;101030.56;5105239;28;20255;-73
2021/06/09 09:08:24;;;;;;;9.40;8.83;;;;;;;22.21;60.58;101031.94;5104600;28;20299;-73
2021/06/09 09:10:50;;;;;;;8.87;8.27;;;;;;;22.25;61.77;101027.34;5105060;28;20207;-72
2021/06/09 09:13:17;;;;;;;8.57;7.93;;;;;;;22.25;61.30;101044.13;5104689;28;20263;-73
2021/06/09 09:15:43;;;;;;;8.27;7.67;;;;;;;22.16;61.18;101036.66;5104811;28;20226;-73
2021/06/09 09:18:09;;;;;;;9.27;8.67;;;;;;;22.22;60.96;101038.97;5104630;28;20682;-73
2021/06/09 09:20:37;;;;;;;8.83;8.23;;;;;;;22.17;61.69;101035.72;5105105;28;20221;-72
2021/06/09 09:23:20;;;;;;;9.67;8.87;;;;;;;22.19;61.19;101041.81;5103910;28;20204;-74
2021/06/09 09:25:47;;;;;;;8.63;8.03;;;;;;;22.30;62.89;101050.06;5104732;28;20226;-74
2021/06/09 09:28:24;;;;;;;9.53;8.83;;;;;;;22.31;60.65;101048.25;5104769;28;20219;-73
2021/06/09 09:30:50;;;;;;;9.17;8.30;;;;;;;22.24;63.09;101046.84;5104940;27;20738;-73
2021/06/09 09:33:18;;;;;;;8.63;8.13;;;;;;;22.43;62.19;101050.19;5104341;28;20214;-72
2021/06/09 09:35:46;;;;;;;9.53;8.97;;;;;;;22.48;60.42;101045.47;5104616;28;20681;-72
2021/06/09 09:38:18;;;;;;;9.33;8.70;;;;;;;22.36;61.91;101051.50;5104097;28;20257;-76
2021/06/09 09:41:05;;;;;;;9.30;8.67;;;;;;;22.19;61.66;101047.97;5104293;28;20611;-73
2021/06/09 09:43:50;;;;;;;10.10;9.40;;;;;;;21.91;61.63;101050.50;5103882;28;20206;-73
2021/06/09 09:46:18;;;;;;;9.80;9.20;;;;;;;21.86;61.73;101053.41;5103145;28;20712;-72
2021/06/09 09:48:59;;;;;;;9.80;9.20;;;;;;;21.79;62.71;101052.91;5104227;28;20252;-73
2021/06/09 09:51:26;;;;;;;9.80;9.20;;;;;;;21.78;62.67;101051.22;5104407;28;20202;-72
2021/06/09 09:53:54;;;;;;;9.43;8.70;;;;;;;21.92;62.35;101047.78;5103621;28;20320;-73
2021/06/09 09:56:22;;;;;;;9.37;8.70;;;;;;;22.15;62.34;101043.78;5102978;28;20210;-72
2021/06/09 09:58:54;;;;;;;10.37;9.57;;;;;;;22.24;61.64;101044.19;5104300;27;20255;-72
2021/06/09 10:01:22;;;;;;;10.17;9.37;;;;;;;22.36;61.49;101041.72;5103869;28;20241;-72
2021/06/09 10:03:51;;;;;;;9.43;8.73;;;;;;;22.65;62.07;101035.59;5103857;28;20222;-73
2021/06/09 10:06:23;;;;;;;9.30;8.60;;;;;;;22.88;60.50;101032.41;5102798;28;20231;-73
2021/06/09 10:08:50;;;;;;;9.87;9.17;;;;;;;22.98;60.49;101033.56;5103604;28;20699;-72
2021/06/09 10:11:18;;;;;;;8.57;8.07;;;;;;;23.05;60.56;101026.06;5104070;28;20215;-73
2021/06/09 10:13:44;;;;;;;9.97;9.37;;;;;;;23.15;59.27;101032.56;5103360;28;20302;-72
2021/06/09 10:16:29;;;;;;;9.40;8.70;;;;;;;22.93;59.09;101022.34;5103751;28;20204;-72
2021/06/09 10:19:04;;;;;;;10.20;9.43;;;;;;;22.94;58.33;101017.88;5104935;27;20214;-72
2021/06/09 10:21:30;;;;;;;10.03;9.20;;;;;;;22.80;59.43;101024.03;5104938;27;20212;-72
2021/06/09 10:24:04;;;;;;;9.93;9.17;;;;;;;22.82;59.55;101021.28;5104524;27;20226;-71
2021/06/09 10:26:30;;;;;;;9.57;8.97;;;;;;;22.87;61.28;101012.03;5104850;27;20213;-72
2021/06/09 10:28:58;;;;;;;10.20;9.50;;;;;;;23.02;59.61;101012.97;5104357;27;20210;-74
2021/06/09 10:31:26;;;;;;;11.07;10.37;;;;;;;23.11;58.48;101014.19;5104344;27;20582;-74
2021/06/09 10:33:52;;;;;;;9.57;9.00;;;;;;;23.27;59.54;101017.63;5104505;27;20239;-74
2021/06/09 10:36:18;;;;;;;9.73;9.00;;;;;;;23.50;58.60;101013.47;5104563;27;20268;-74
2021/06/09 10:38:46;;;;;;;10.33;9.40;;;;;;;23.65;58.64;101014.31;5104346;27;20768;-73
2021/06/09 10:41:13;;;;;;;10.00;9.40;;;;;;;23.75;58.01;101014.56;5104507;27;20679;-73
2021/06/09 10:43:41;;;;;;;9.47;8.87;;;;;;;23.72;58.37;101010.25;5103994;27;20279;-74
2021/06/09 10:46:09;;;;;;;10.10;9.33;;;;;;;23.75;57.73;101011.91;5104158;28;20227;-75
2021/06/09 10:48:39;;;;;;;10.97;10.27;;;;;;;23.61;56.16;101012.78;5104651;27;20989;-74
2021/06/09 10:51:05;;;;;;;9.53;8.93;;;;;;;23.63;57.10;101004.66;5104414;27;20207;-73
2021/06/09 10:53:31;;;;;;;9.93;9.33;;;;;;;23.92;56.70;101009.00;5104341;27;20195;-74
2021/06/09 10:55:57;;;;;;;10.03;9.23;;;;;;;24.11;57.29;101007.78;5102743;27;20622;-73
2021/06/09 10:58:24;;;;;;;9.77;9.17;;;;;;;24.35;55.93;100998.13;5102683;27;20627;-74
2021/06/09 11:00:54;;;;;;;9.63;9.03;;;;;;;24.45;55.71;101008.19;5103286;27;20700;-72
2021/06/09 11:03:20;;;;;;;9.83;9.23;;;;;;;24.53;56.74;101005.88;5103232;27;20210;-73
2021/06/09 11:05:47;;;;;;;9.57;8.87;;;;;;;24.49;56.17;101005.19;5104218;28;20219;-73
2021/06/09 11:08:15;;;;;;;9.23;8.73;;;;;;;24.53;55.50;100993.38;5103795;28;20213;-72
2021/06/09 11:10:43;;;;;;;8.63;8.13;;;;;;;24.85;54.86;100998.28;5104455;27;20225;-73
2021/06/09 11:13:09;;;;;;;9.00;8.50;;;;;;;25.13;55.20;100986.53;5104077;27;20210;-76
2021/06/09 11:15:36;;;;;;;8.70;8.10;;;;;;;25.40;53.73;100988.19;5103141;28;20217;-73
2021/06/09 11:18:12;;;;;;;8.77;8.17;;;;;;;25.48;53.19;100995.66;5103576;28;20207;-76
2021/06/09 11:20:40;;;;;;;9.10;8.60;;;;;;;25.32;52.35;100988.75;5103918;27;20230;-73
2021/06/09 11:23:10;;;;;;;9.20;8.70;;;;;;;25.23;52.74;100983.19;5104210;27;20210;-73
2021/06/09 11:25:38;;;;;;;9.37;8.87;;;;;;;24.75;54.32;100982.06;5104600;27;20606;-73
2021/06/09 11:28:06;;;;;;;9.03;8.43;;;;;;;24.74;55.43;100984.84;5103791;27;20215;-73